< < Back
Terminal Aerodrome Forecast


Current Version              Previous Versions:   1  2  3  4  5  6  7  8  9  

Terminal Aerodrome Forecast

017
FTUS42 KMLB 211700
TAFMCO
TAF
KMCO 211727Z 2118/2218 21003KT P6SM SCT035 BKN250
     FM220000 30003KT P6SM BKN250
     FM221400 36006KT P6SM BKN250=

Latest METAR

185
SAUS70 KWBC 220000 RRU
MTRMCO
METAR KMCO 212353Z 05006KT 10SM SCT041 OVC260 24/22 A2994 RMK AO2 SLP136
T02440217 10283 20244 53010


USA.gov is the U.S. government's official web portal to all federal, state and local government web resources and services.